Time;durP1;ratioP1;P1;durP2;ratioP2;P2;SDS_P1;SDS_P2;PMS_P1;PMS_P2;Temp;Humidity;BMP_temperature;BMP_pressure;BME280_temperature;BME280_humidity;BME280_pressure;Samples;Min_cycle;Max_cycle;Signal;HPM_P1;HPM_P2
2021/09/25 00:02:55;;;;;;;5.07;4.07;;;;;14.40;101096.00;;;;10520112;28;20232;-79
2021/09/25 00:07:58;;;;;;;8.47;3.80;;;;;14.50;101107.00;;;;10486674;28;20201;-80
2021/09/25 00:13:03;;;;;;;4.67;3.20;;;;;14.50;101102.00;;;;10487258;28;20247;-79
2021/09/25 00:18:05;;;;;;;7.30;4.33;;;;;14.50;101112.00;;;;10469628;28;20707;-79
2021/09/25 00:23:08;;;;;;;5.83;3.70;;;;;14.40;101106.00;;;;10469674;28;20216;-79
2021/09/25 00:28:09;;;;;;;8.13;4.40;;;;;14.40;101100.00;;;;10487034;28;20201;-79
2021/09/25 00:33:11;;;;;;;6.93;4.37;;;;;14.30;101100.00;;;;10483190;28;20209;-79
2021/09/25 00:38:13;;;;;;;7.40;4.80;;;;;14.20;101090.00;;;;10412819;28;20190;-79
2021/09/25 00:43:15;;;;;;;6.93;4.90;;;;;14.10;101089.00;;;;10443433;28;20556;-78
2021/09/25 00:48:17;;;;;;;10.67;5.73;;;;;14.00;101094.00;;;;10460581;28;20202;-79
2021/09/25 00:53:19;;;;;;;10.90;5.77;;;;;14.00;101094.00;;;;10443742;28;20534;-79
2021/09/25 00:58:21;;;;;;;10.63;5.87;;;;;13.90;101106.00;;;;10461259;28;20217;-79
2021/09/25 01:03:22;;;;;;;9.53;6.73;;;;;13.90;101101.00;;;;10428954;28;20221;-79
2021/09/25 01:08:25;;;;;;;9.70;6.27;;;;;13.80;101103.00;;;;10443657;28;20264;-79
2021/09/25 01:13:27;;;;;;;9.30;6.57;;;;;13.70;101103.00;;;;10443011;28;20672;-79
2021/09/25 01:18:29;;;;;;;8.97;6.47;;;;;13.60;101104.00;;;;10427944;28;20194;-79
2021/09/25 01:23:30;;;;;;;10.97;6.37;;;;;13.60;101100.00;;;;10460877;28;20215;-79
2021/09/25 01:28:35;;;;;;;11.07;6.77;;;;;13.50;101094.00;;;;10443286;28;20197;-79
2021/09/25 01:33:43;;;;;;;13.47;7.20;;;;;13.40;101095.00;;;;10468344;28;20686;-79
2021/09/25 01:38:45;;;;;;;16.17;8.43;;;;;13.40;101100.00;;;;10502111;28;20715;-79
2021/09/25 01:43:47;;;;;;;13.20;9.23;;;;;13.30;101112.00;;;;10484596;28;20214;-79
2021/09/25 01:48:49;;;;;;;15.90;9.87;;;;;13.40;101102.00;;;;10467455;28;20263;-79
2021/09/25 01:53:52;;;;;;;16.13;9.77;;;;;13.40;101103.00;;;;10484555;28;20200;-79
2021/09/25 01:58:54;;;;;;;22.03;10.73;;;;;13.40;101094.00;;;;10484092;28;20197;-79
2021/09/25 02:03:56;;;;;;;17.33;9.67;;;;;13.40;101102.00;;;;10468468;28;20367;-79
2021/09/25 02:08:58;;;;;;;17.10;9.67;;;;;13.50;101101.00;;;;10475659;28;20193;-79
2021/09/25 02:14:00;;;;;;;16.67;9.93;;;;;13.50;101107.00;;;;10491992;28;20655;-79
2021/09/25 02:19:02;;;;;;;17.20;9.60;;;;;13.50;101113.00;;;;10492166;28;20190;-79
2021/09/25 02:24:04;;;;;;;16.87;9.90;;;;;13.50;101111.00;;;;10458147;28;20251;-79
2021/09/25 02:29:06;;;;;;;16.90;10.23;;;;;13.50;101107.00;;;;10457974;28;20239;-79
2021/09/25 02:34:08;;;;;;;23.63;11.43;;;;;13.60;101112.00;;;;10475246;28;20232;-79
2021/09/25 02:39:10;;;;;;;17.60;10.47;;;;;13.70;101108.00;;;;10474140;28;20611;-79
2021/09/25 02:44:12;;;;;;;21.80;12.10;;;;;13.80;101104.00;;;;10473906;28;20213;-79
2021/09/25 02:49:15;;;;;;;22.93;11.57;;;;;13.90;101116.00;;;;10473711;28;20201;-79
2021/09/25 02:54:17;;;;;;;20.97;12.03;;;;;14.00;101120.00;;;;10473372;28;20190;-79
2021/09/25 02:59:19;;;;;;;19.40;10.97;;;;;14.10;101113.00;;;;10467718;28;20225;-79
2021/09/25 03:04:21;;;;;;;23.60;12.27;;;;;14.10;101102.00;;;;10432705;28;20279;-80
2021/09/25 03:09:23;;;;;;;23.43;13.53;;;;;14.20;101101.00;;;;10415620;28;20252;-79
2021/09/25 03:14:25;;;;;;;23.67;14.20;;;;;14.20;101096.00;;;;10414315;28;20595;-79
2021/09/25 03:19:27;;;;;;;22.43;14.37;;;;;14.30;101087.00;;;;10430750;28;20178;-79
2021/09/25 03:24:29;;;;;;;21.10;13.83;;;;;14.30;101094.00;;;;10414595;28;20665;-79
2021/09/25 03:29:31;;;;;;;22.23;13.87;;;;;14.30;101102.00;;;;10430841;28;20198;-79
2021/09/25 03:34:33;;;;;;;24.30;14.33;;;;;14.30;101082.00;;;;10464245;28;20190;-79
2021/09/25 03:39:35;;;;;;;21.50;14.20;;;;;14.30;101087.00;;;;10440013;28;20202;-79
2021/09/25 03:44:37;;;;;;;24.90;15.37;;;;;14.30;101091.00;;;;10446655;28;20661;-79
2021/09/25 03:49:41;;;;;;;25.50;15.90;;;;;14.30;101093.00;;;;10447070;28;20194;-79
2021/09/25 03:54:43;;;;;;;25.40;15.77;;;;;14.30;101092.00;;;;10430111;28;20182;-79
2021/09/25 03:59:44;;;;;;;21.73;14.70;;;;;14.20;101095.00;;;;10420020;28;20229;-79
2021/09/25 04:04:46;;;;;;;25.87;16.30;;;;;14.20;101096.00;;;;10454959;28;20701;-79
2021/09/25 04:09:48;;;;;;;26.50;16.10;;;;;14.20;101093.00;;;;10388610;28;20681;-79
2021/09/25 04:14:50;;;;;;;28.40;16.53;;;;;14.20;101095.00;;;;10454430;28;20190;-78
2021/09/25 04:19:52;;;;;;;26.00;17.00;;;;;14.10;101089.00;;;;10437076;28;20195;-79
2021/09/25 04:24:54;;;;;;;25.43;16.40;;;;;14.10;101092.00;;;;10420349;28;20203;-79
2021/09/25 04:29:58;;;;;;;28.40;17.93;;;;;14.00;101092.00;;;;10459046;28;20743;-79
2021/09/25 04:35:00;;;;;;;29.80;17.47;;;;;13.90;101087.00;;;;10470068;28;20205;-79
2021/09/25 04:40:03;;;;;;;29.17;16.57;;;;;13.80;101086.00;;;;10469447;28;20668;-79
2021/09/25 04:45:05;;;;;;;29.27;17.63;;;;;13.70;101095.00;;;;10502487;28;20189;-79
2021/09/25 04:50:08;;;;;;;29.93;17.53;;;;;13.70;101099.00;;;;10471230;28;20198;-77
2021/09/25 04:55:11;;;;;;;31.43;18.73;;;;;13.70;101088.00;;;;10444547;28;20637;-79
2021/09/25 05:00:13;;;;;;;29.27;17.60;;;;;13.80;101092.00;;;;10454396;28;20202;-79
2021/09/25 05:05:15;;;;;;;29.60;17.27;;;;;13.80;101088.00;;;;10411142;28;20198;-79
2021/09/25 05:10:17;;;;;;;25.97;16.47;;;;;13.70;101088.00;;;;10460371;28;20202;-79
2021/09/25 05:15:19;;;;;;;27.43;16.03;;;;;13.70;101093.00;;;;10443475;28;20206;-79
2021/09/25 05:20:21;;;;;;;30.10;18.13;;;;;13.60;101092.00;;;;10443122;28;20213;-79
2021/09/25 05:25:23;;;;;;;31.93;17.73;;;;;13.60;101087.00;;;;10443930;28;20228;-79
2021/09/25 05:30:26;;;;;;;30.43;18.30;;;;;13.50;101094.00;;;;10419970;28;20213;-79
2021/09/25 05:35:28;;;;;;;30.57;18.90;;;;;13.50;101099.00;;;;10360403;28;20199;-79
2021/09/25 05:40:30;;;;;;;32.27;18.43;;;;;13.40;101093.00;;;;10376877;28;20215;-79
2021/09/25 05:45:32;;;;;;;29.17;17.90;;;;;13.40;101096.00;;;;10373006;28;20705;-79
2021/09/25 05:50:34;;;;;;;32.80;18.37;;;;;13.30;101103.00;;;;10449645;28;20198;-79
2021/09/25 05:55:37;;;;;;;29.53;18.40;;;;;13.30;101108.00;;;;10475127;28;20665;-79
2021/09/25 06:00:39;;;;;;;40.37;20.73;;;;;13.30;101106.00;;;;10442078;28;20214;-79
2021/09/25 06:05:42;;;;;;;33.60;19.07;;;;;13.30;101103.00;;;;10442834;28;20191;-79
2021/09/25 06:10:45;;;;;;;37.23;19.57;;;;;13.50;101108.00;;;;10442606;28;20637;-79
2021/09/25 06:15:47;;;;;;;40.70;22.10;;;;;13.90;101158.00;;;;10459038;28;20202;-79
2021/09/25 06:20:49;;;;;;;33.80;19.77;;;;;14.20;101175.00;;;;10443002;28;20252;-79
2021/09/25 06:25:50;;;;;;;29.47;18.43;;;;;14.30;101164.00;;;;10426327;28;20205;-79
2021/09/25 06:30:52;;;;;;;29.87;17.97;;;;;14.50;101168.00;;;;10478078;28;20660;-79
2021/09/25 06:35:56;;;;;;;28.33;19.13;;;;;14.70;101158.00;;;;10404600;28;20605;-79
2021/09/25 06:40:58;;;;;;;28.07;17.27;;;;;14.90;101164.00;;;;10384263;28;20265;-79
2021/09/25 06:46:01;;;;;;;31.83;18.37;;;;;15.10;101160.00;;;;10415974;28;20290;-79
2021/09/25 06:51:03;;;;;;;26.83;16.50;;;;;15.40;101159.00;;;;10452246;28;20293;-79
2021/09/25 06:56:05;;;;;;;19.27;14.57;;;;;15.80;101172.00;;;;10413469;28;20206;-79
2021/09/25 07:01:08;;;;;;;22.17;14.87;;;;;16.00;101171.00;;;;10497763;28;20267;-77
2021/09/25 07:06:10;;;;;;;22.20;15.63;;;;;16.30;101165.00;;;;10417429;28;20598;-79
2021/09/25 07:11:12;;;;;;;20.57;14.33;;;;;16.50;101168.00;;;;10445807;28;20198;-77
2021/09/25 07:16:14;;;;;;;19.42;14.25;;;;;16.70;101167.00;;;;10460896;28;20187;-77
2021/09/25 07:21:16;;;;;;;17.85;13.73;;;;;16.80;101159.00;;;;10440622;28;20277;-79
2021/09/25 07:26:18;;;;;;;17.80;13.13;;;;;17.10;101159.00;;;;10494557;28;20198;-79
2021/09/25 07:31:20;;;;;;;15.02;12.40;;;;;17.50;101160.00;;;;10440828;28;20197;-79
2021/09/25 07:36:24;;;;;;;19.08;12.82;;;;;17.70;101164.00;;;;10436101;28;20209;-78
2021/09/25 07:41:26;;;;;;;17.65;12.32;;;;;17.90;101167.00;;;;10436827;28;20293;-77
2021/09/25 07:46:28;;;;;;;16.02;12.23;;;;;18.00;101167.00;;;;10477742;28;20205;-79
2021/09/25 07:51:30;;;;;;;17.17;11.82;;;;;18.20;101180.00;;;;10469133;28;20194;-77
2021/09/25 07:56:33;;;;;;;13.32;11.07;;;;;18.50;101169.00;;;;10468142;28;20660;-77
2021/09/25 08:01:35;;;;;;;15.63;11.70;;;;;18.80;101169.00;;;;10501325;28;20209;-77
2021/09/25 08:06:37;;;;;;;15.27;11.23;;;;;19.10;101174.00;;;;10510200;28;20235;-78
2021/09/25 08:11:39;;;;;;;12.45;10.10;;;;;19.40;101167.00;;;;10436273;28;20190;-78
2021/09/25 08:16:41;;;;;;;11.45;9.88;;;;;19.70;101148.00;;;;10460618;28;20194;-78
2021/09/25 08:21:44;;;;;;;11.80;8.82;;;;;20.20;101139.00;;;;10479787;28;20209;-77
2021/09/25 08:26:46;;;;;;;12.93;8.98;;;;;20.60;101136.00;;;;10498297;28;20690;-78
2021/09/25 08:31:48;;;;;;;11.25;8.68;;;;;20.90;101124.00;;;;10475053;28;20225;-77
2021/09/25 08:36:49;;;;;;;9.90;7.80;;;;;21.20;101131.00;;;;10465002;28;20197;-77
2021/09/25 08:41:52;;;;;;;9.18;7.32;;;;;21.50;101132.00;;;;10466767;28;20205;-77
2021/09/25 08:46:54;;;;;;;8.57;6.95;;;;;21.80;101127.00;;;;10478025;28;20186;-78
2021/09/25 08:51:56;;;;;;;9.55;7.47;;;;;22.10;101129.00;;;;10497447;28;20208;-78
2021/09/25 08:56:58;;;;;;;9.52;6.88;;;;;22.40;101131.00;;;;10488011;28;20619;-77
2021/09/25 09:02:10;;;;;;;8.10;6.30;;;;;22.70;101140.00;;;;10482828;28;20579;-77
2021/09/25 09:07:25;;;;;;;7.70;6.03;;;;;23.00;101128.00;;;;10465614;28;20221;-77
2021/09/25 09:12:28;;;;;;;8.13;5.82;;;;;23.30;101140.00;;;;10446264;28;20197;-77
2021/09/25 09:17:31;;;;;;;5.90;5.30;;;;;23.50;101143.00;;;;10464040;28;20193;-77
2021/09/25 09:22:33;;;;;;;7.63;5.28;;;;;24.00;101138.00;;;;10466019;28;20240;-77
2021/09/25 09:27:43;;;;;;;6.68;5.50;;;;;24.10;101148.00;;;;10467418;28;20221;-77
2021/09/25 09:32:45;;;;;;;7.30;5.78;;;;;24.30;101147.00;;;;10481335;28;20243;-78
2021/09/25 09:37:55;;;;;;;8.20;6.25;;;;;24.50;101133.00;;;;10482703;28;20648;-78
2021/09/25 09:42:58;;;;;;;7.85;5.05;;;;;24.60;101139.00;;;;10500210;28;20217;-78
2021/09/25 09:48:01;;;;;;;6.57;5.78;;;;;24.80;101146.00;;;;10452218;28;20215;-78
2021/09/25 09:53:14;;;;;;;7.10;5.03;;;;;25.00;101143.00;;;;10434128;28;20191;-78
2021/09/25 09:58:20;;;;;;;5.60;4.97;;;;;25.20;101134.00;;;;10433070;28;20202;-78
2021/09/25 10:03:22;;;;;;;7.40;5.28;;;;;25.40;101134.00;;;;10437870;28;20217;-78
2021/09/25 10:08:24;;;;;;;5.75;4.97;;;;;25.50;101136.00;;;;10457711;28;20198;-78
2021/09/25 10:13:27;;;;;;;6.63;6.03;;;;;25.70;101136.00;;;;10457339;28;20216;-78
2021/09/25 10:18:29;;;;;;;6.18;5.50;;;;;25.80;101140.00;;;;10473610;28;20198;-78
2021/09/25 10:23:33;;;;;;;5.85;5.25;;;;;25.90;101133.00;;;;10450532;28;20213;-78
2021/09/25 10:28:35;;;;;;;7.90;4.47;;;;;25.90;101134.00;;;;10487959;28;20780;-78
2021/09/25 10:33:38;;;;;;;5.05;4.55;;;;;26.00;101134.00;;;;10449030;28;20233;-77
2021/09/25 10:38:42;;;;;;;5.63;4.35;;;;;26.20;101133.00;;;;10436494;28;20275;-77
2021/09/25 10:44:01;;;;;;;7.57;5.82;;;;;26.30;101139.00;;;;10422303;28;20230;-77
2021/09/25 10:49:13;;;;;;;7.13;4.68;;;;;26.50;101129.00;;;;10448184;28;20245;-78
2021/09/25 10:54:15;;;;;;;4.80;3.75;;;;;26.70;101125.00;;;;10439967;28;20181;-78
2021/09/25 10:59:17;;;;;;;4.07;3.67;;;;;26.80;101121.00;;;;10462275;28;20222;-77
2021/09/25 11:04:22;;;;;;;3.92;3.53;;;;;27.00;101121.00;;;;10432723;28;20230;-77
2021/09/25 11:09:26;;;;;;;4.20;3.80;;;;;27.00;101118.00;;;;10429020;28;20218;-78
2021/09/25 11:14:32;;;;;;;4.05;3.65;;;;;26.80;101114.00;;;;10455043;28;20221;-78
2021/09/25 11:19:36;;;;;;;5.10;3.70;;;;;26.90;101112.00;;;;10444312;28;20198;-77
2021/09/25 11:24:46;;;;;;;6.70;4.70;;;;;26.80;101115.00;;;;10425491;28;20310;-78
2021/09/25 11:30:08;;;;;;;4.07;3.47;;;;;26.80;101108.00;;;;10449368;28;20205;-78
2021/09/25 11:35:22;;;;;;;3.95;3.22;;;;;26.80;101112.00;;;;10414482;28;20247;-77
2021/09/25 11:40:28;;;;;;;3.90;3.30;;;;;26.80;101110.00;;;;10434865;28;20222;-78
2021/09/25 11:45:33;;;;;;;4.25;3.85;;;;;26.70;101103.00;;;;10452004;28;20206;-78
2021/09/25 11:50:40;;;;;;;3.47;2.97;;;;;26.40;101101.00;;;;10459119;28;20198;-78
2021/09/25 11:55:44;;;;;;;2.90;2.70;;;;;26.30;101092.00;;;;10444321;28;20248;-78
2021/09/25 12:00:51;;;;;;;3.70;3.08;;;;;26.40;101086.00;;;;10457659;28;20194;-77
2021/09/25 12:05:55;;;;;;;3.70;3.30;;;;;26.30;101078.00;;;;10416681;28;21457;-77
2021/09/25 12:11:05;;;;;;;3.85;3.40;;;;;26.60;101070.00;;;;10435121;28;20225;-77
2021/09/25 12:16:26;;;;;;;4.07;3.72;;;;;27.10;101066.00;;;;10440527;28;20725;-78
2021/09/25 12:21:28;;;;;;;5.88;3.88;;;;;27.30;101063.00;;;;10443190;28;20210;-76
2021/09/25 12:26:33;;;;;;;4.22;3.83;;;;;27.40;101063.00;;;;10428701;28;20198;-77
2021/09/25 12:31:37;;;;;;;4.13;3.80;;;;;27.30;101065.00;;;;10427003;28;20256;-77
2021/09/25 12:36:50;;;;;;;4.00;3.60;;;;;27.30;101058.00;;;;10434935;28;20734;-78
2021/09/25 12:41:58;;;;;;;4.15;3.60;;;;;27.40;101047.00;;;;10407294;28;20214;-78
2021/09/25 12:47:01;;;;;;;3.22;3.00;;;;;27.40;101034.00;;;;10415870;28;20237;-77
2021/09/25 12:52:13;;;;;;;4.97;3.58;;;;;27.40;101029.00;;;;10470824;28;20193;-77
2021/09/25 12:57:14;;;;;;;3.47;3.17;;;;;27.30;101025.00;;;;10457438;28;20197;-77
2021/09/25 13:02:19;;;;;;;4.22;3.63;;;;;27.20;101032.00;;;;10440438;28;20244;-76
2021/09/25 13:07:29;;;;;;;4.30;3.90;;;;;27.10;101028.00;;;;10399690;28;20910;-77
2021/09/25 13:12:33;;;;;;;3.90;3.50;;;;;27.20;101024.00;;;;10436466;28;20664;-77
2021/09/25 13:17:37;;;;;;;5.05;3.33;;;;;27.10;101019.00;;;;10434392;28;20198;-77
2021/09/25 13:22:44;;;;;;;4.28;3.88;;;;;26.90;101014.00;;;;10442631;28;20253;-77
2021/09/25 13:27:48;;;;;;;4.68;3.92;;;;;26.90;101007.00;;;;10481406;28;20194;-77
2021/09/25 13:32:50;;;;;;;5.00;4.20;;;;;26.80;100992.00;;;;10462043;28;20229;-78
2021/09/25 13:37:52;;;;;;;5.60;3.80;;;;;26.60;100999.00;;;;10403853;28;20203;-78
2021/09/25 13:42:54;;;;;;;3.30;3.00;;;;;26.50;100996.00;;;;10404254;28;20215;-78
2021/09/25 13:47:58;;;;;;;4.70;3.22;;;;;26.60;100990.00;;;;10407371;28;20199;-78
2021/09/25 13:53:01;;;;;;;4.07;3.50;;;;;26.50;100988.00;;;;10479599;28;20671;-78
2021/09/25 13:58:04;;;;;;;4.82;4.13;;;;;26.40;100982.00;;;;10515347;28;20193;-77
2021/09/25 14:03:06;;;;;;;3.78;3.47;;;;;26.20;100976.00;;;;10464965;28;20205;-77
2021/09/25 14:08:09;;;;;;;4.22;3.83;;;;;25.90;100975.00;;;;10482393;28;20224;-78
2021/09/25 14:13:12;;;;;;;4.43;3.45;;;;;26.40;100977.00;;;;10467007;28;20194;-78
2021/09/25 14:18:14;;;;;;;5.30;3.13;;;;;27.90;100965.00;;;;10440826;28;20210;-78
2021/09/25 14:23:15;;;;;;;6.15;3.03;;;;;30.60;100941.00;;;;10415976;28;20669;-77
2021/09/25 14:28:19;;;;;;;4.38;2.80;;;;;28.20;100956.00;;;;10432871;28;20194;-78
2021/09/25 14:33:21;;;;;;;4.57;2.47;;;;;25.80;100969.00;;;;10409368;28;20210;-78
2021/09/25 14:38:24;;;;;;;4.85;3.20;;;;;24.70;100967.00;;;;10382443;28;20659;-78
2021/09/25 14:43:26;;;;;;;3.45;2.92;;;;;24.10;100951.00;;;;10399273;28;20301;-77
2021/09/25 14:48:28;;;;;;;2.58;2.38;;;;;23.80;100958.00;;;;10432228;28;20199;-78
2021/09/25 14:53:31;;;;;;;5.55;3.10;;;;;23.50;100949.00;;;;10388974;28;20206;-77
2021/09/25 14:58:33;;;;;;;2.40;2.20;;;;;23.30;100945.00;;;;10440472;28;20264;-77
2021/09/25 15:03:35;;;;;;;3.33;2.75;;;;;23.20;100930.00;;;;10424342;28;20202;-78
2021/09/25 15:08:37;;;;;;;3.47;2.90;;;;;23.00;100934.00;;;;10437255;28;20214;-78
2021/09/25 15:13:39;;;;;;;3.17;2.80;;;;;22.90;100928.00;;;;10402322;28;20245;-78
2021/09/25 15:18:41;;;;;;;4.53;2.65;;;;;22.90;100925.00;;;;10439109;28;20225;-77
2021/09/25 15:23:43;;;;;;;4.13;2.42;;;;;22.70;100924.00;;;;10373168;28;20246;-77
2021/09/25 15:28:46;;;;;;;3.50;3.13;;;;;22.60;100916.00;;;;10476934;28;20209;-78
2021/09/25 15:33:48;;;;;;;3.63;3.20;;;;;22.50;100916.00;;;;10505420;28;20190;-78
2021/09/25 15:38:50;;;;;;;4.40;3.22;;;;;22.40;100908.00;;;;10487554;28;20217;-78
2021/09/25 15:43:52;;;;;;;3.70;3.28;;;;;22.30;100915.00;;;;10487630;28;20210;-77
2021/09/25 15:48:54;;;;;;;5.85;3.10;;;;;22.20;100906.00;;;;10463102;28;20198;-78
2021/09/25 15:53:56;;;;;;;4.25;3.03;;;;;22.10;100925.00;;;;10446293;28;20196;-78
2021/09/25 15:58:58;;;;;;;3.20;2.75;;;;;22.10;100922.00;;;;10450442;28;20197;-77
2021/09/25 16:04:00;;;;;;;3.20;2.75;;;;;22.00;100929.00;;;;10445912;28;20250;-77
2021/09/25 16:09:04;;;;;;;5.97;3.40;;;;;21.80;100936.00;;;;10445376;28;20629;-77
2021/09/25 16:14:06;;;;;;;5.18;3.30;;;;;21.70;100936.00;;;;10462200;28;20190;-78
2021/09/25 16:19:08;;;;;;;6.05;3.70;;;;;21.60;100937.00;;;;10428207;28;20985;-77
2021/09/25 16:24:11;;;;;;;6.45;3.70;;;;;21.60;100934.00;;;;10444803;28;20206;-78
2021/09/25 16:29:13;;;;;;;4.63;3.38;;;;;21.60;100925.00;;;;10467114;28;20200;-78
2021/09/25 16:34:15;;;;;;;4.80;3.50;;;;;21.40;100923.00;;;;10519760;28;20243;-77
2021/09/25 16:39:17;;;;;;;5.13;3.10;;;;;21.20;100918.00;;;;10502194;28;20209;-77
2021/09/25 16:44:19;;;;;;;4.68;2.92;;;;;21.00;100919.00;;;;10501489;28;20201;-77
2021/09/25 16:49:21;;;;;;;5.22;3.25;;;;;20.90;100925.00;;;;10517721;28;20205;-77
2021/09/25 16:54:22;;;;;;;4.43;3.22;;;;;20.70;100908.00;;;;10451880;28;20228;-77
2021/09/25 16:59:27;;;;;;;6.60;3.28;;;;;20.50;100913.00;;;;10444356;28;20190;-77
2021/09/25 17:04:29;;;;;;;6.05;3.58;;;;;20.20;100915.00;;;;10459881;28;20210;-77
2021/09/25 17:09:31;;;;;;;8.57;4.28;;;;;19.90;100910.00;;;;10393753;28;20210;-77
2021/09/25 17:14:33;;;;;;;6.78;3.78;;;;;19.60;100911.00;;;;10434184;28;20191;-77
2021/09/25 17:19:35;;;;;;;8.90;3.78;;;;;19.40;100910.00;;;;10416972;28;20199;-77
2021/09/25 17:24:37;;;;;;;7.35;3.42;;;;;19.10;100900.00;;;;10401282;28;20218;-77
2021/09/25 17:29:44;;;;;;;11.57;3.25;;;;;18.80;100904.00;;;;10439995;28;20194;-77
2021/09/25 17:34:46;;;;;;;12.00;4.22;;;;;18.60;100901.00;;;;10440858;28;20191;-77
2021/09/25 17:39:48;;;;;;;15.40;4.60;;;;;18.30;100898.00;;;;10457764;28;20210;-77
2021/09/25 17:44:51;;;;;;;11.20;4.22;;;;;18.10;100910.00;;;;10473795;28;20218;-77
2021/09/25 17:49:53;;;;;;;6.35;4.07;;;;;17.90;100911.00;;;;10430509;28;20206;-77
2021/09/25 17:54:55;;;;;;;8.05;4.47;;;;;17.70;100911.00;;;;10383039;28;20191;-77
2021/09/25 17:59:57;;;;;;;15.52;4.30;;;;;17.50;100923.00;;;;10443722;28;20194;-77
2021/09/25 18:04:59;;;;;;;8.88;4.25;;;;;17.30;100911.00;;;;10473452;28;20289;-77
2021/09/25 18:10:03;;;;;;;6.40;3.40;;;;;17.10;100917.00;;;;10436077;28;20207;-77
2021/09/25 18:15:07;;;;;;;6.78;4.22;;;;;17.00;100935.00;;;;10368461;28;20196;-77
2021/09/25 18:20:10;;;;;;;9.00;4.28;;;;;16.80;100931.00;;;;10398252;28;20601;-77
2021/09/25 18:25:12;;;;;;;6.13;4.60;;;;;16.70;100928.00;;;;10414782;28;20225;-77
2021/09/25 18:30:14;;;;;;;4.77;4.27;;;;;16.60;100942.00;;;;10394892;28;20565;-77
2021/09/25 18:35:16;;;;;;;6.35;4.60;;;;;16.50;100948.00;;;;10365066;28;20200;-77
2021/09/25 18:40:19;;;;;;;10.97;5.20;;;;;16.40;100932.00;;;;10357174;28;20219;-77
2021/09/25 18:45:23;;;;;;;9.57;4.93;;;;;16.30;100934.00;;;;10357591;28;20683;-77
2021/09/25 18:50:24;;;;;;;8.00;5.40;;;;;16.20;100928.00;;;;10353070;28;20659;-77
2021/09/25 18:55:27;;;;;;;11.00;5.13;;;;;16.10;100925.00;;;;10382900;28;20270;-77
2021/09/25 19:00:29;;;;;;;9.73;5.50;;;;;16.00;100928.00;;;;10458018;28;20601;-77
2021/09/25 19:05:31;;;;;;;8.47;5.83;;;;;15.90;100933.00;;;;10430556;28;20206;-77
2021/09/25 19:10:34;;;;;;;6.23;5.57;;;;;15.80;100937.00;;;;10430291;28;20193;-77
2021/09/25 19:15:36;;;;;;;11.33;6.50;;;;;15.70;100931.00;;;;10437814;28;20194;-77
2021/09/25 19:20:39;;;;;;;10.40;6.17;;;;;15.70;100932.00;;;;10450456;28;20674;-77
2021/09/25 19:25:41;;;;;;;10.30;6.87;;;;;15.70;100930.00;;;;10398850;28;20214;-77
2021/09/25 19:30:45;;;;;;;12.50;6.63;;;;;15.60;100927.00;;;;10419281;28;20662;-77
2021/09/25 19:35:46;;;;;;;12.43;7.53;;;;;15.60;100929.00;;;;10421197;28;20566;-77
2021/09/25 19:40:49;;;;;;;12.20;7.37;;;;;15.60;100932.00;;;;10404538;28;20332;-77
2021/09/25 19:45:52;;;;;;;9.77;8.27;;;;;15.60;100936.00;;;;10432865;28;20276;-77
2021/09/25 19:50:55;;;;;;;10.43;7.47;;;;;15.60;100926.00;;;;10426486;28;20293;-77
2021/09/25 19:55:57;;;;;;;13.57;8.03;;;;;15.70;100920.00;;;;10452540;28;20194;-77
2021/09/25 20:00:59;;;;;;;10.80;8.40;;;;;15.70;100922.00;;;;10427799;28;20198;-79
2021/09/25 20:06:02;;;;;;;11.80;9.40;;;;;15.70;100920.00;;;;10433167;28;20281;-77
2021/09/25 20:11:05;;;;;;;15.83;10.43;;;;;15.80;100926.00;;;;10404705;28;20290;-77
2021/09/25 20:16:07;;;;;;;15.60;10.27;;;;;15.80;100920.00;;;;10419321;28;20245;-77
2021/09/25 20:21:10;;;;;;;18.70;11.60;;;;;15.80;100921.00;;;;10387090;28;20191;-77
2021/09/25 20:26:13;;;;;;;14.83;11.47;;;;;15.90;100921.00;;;;10403276;28;20203;-77
2021/09/25 20:31:15;;;;;;;15.60;11.33;;;;;15.90;100914.00;;;;10419088;28;20195;-77
2021/09/25 20:36:17;;;;;;;11.97;10.00;;;;;15.90;100918.00;;;;10435374;28;20191;-77
2021/09/25 20:41:19;;;;;;;9.83;8.80;;;;;15.90;100912.00;;;;10435404;28;20249;-77
2021/09/25 20:46:20;;;;;;;10.97;9.13;;;;;15.90;100904.00;;;;10418661;28;20212;-77
2021/09/25 20:51:23;;;;;;;12.03;8.83;;;;;15.80;100906.00;;;;10386198;28;20206;-77
2021/09/25 20:56:25;;;;;;;11.33;9.37;;;;;15.80;100894.00;;;;10419575;28;20700;-80
2021/09/25 21:01:27;;;;;;;11.63;8.23;;;;;15.80;100890.00;;;;10467483;28;20197;-77
2021/09/25 21:06:29;;;;;;;11.93;8.27;;;;;15.80;100882.00;;;;10486463;28;20242;-78
2021/09/25 21:11:31;;;;;;;10.50;8.23;;;;;15.80;100883.00;;;;10468718;28;20198;-77
2021/09/25 21:16:33;;;;;;;10.03;8.07;;;;;15.80;100878.00;;;;10485540;28;20652;-78
2021/09/25 21:21:35;;;;;;;9.03;8.10;;;;;15.80;100879.00;;;;10519346;28;20269;-78
2021/09/25 21:26:38;;;;;;;10.63;9.00;;;;;15.70;100864.00;;;;10503463;28;20610;-78
2021/09/25 21:31:39;;;;;;;10.53;8.20;;;;;15.70;100863.00;;;;10485688;28;20616;-78
2021/09/25 21:36:41;;;;;;;10.50;8.53;;;;;15.60;100862.00;;;;10518718;28;20244;-78
2021/09/25 21:41:43;;;;;;;10.93;8.67;;;;;15.50;100858.00;;;;10484115;28;20572;-78
2021/09/25 21:46:45;;;;;;;12.97;8.67;;;;;15.40;100845.00;;;;10483463;28;20271;-78
2021/09/25 21:51:47;;;;;;;12.00;8.77;;;;;15.40;100843.00;;;;10500896;28;20279;-78
2021/09/25 21:56:50;;;;;;;10.53;9.03;;;;;15.30;100846.00;;;;10484990;28;20202;-77
2021/09/25 22:01:53;;;;;;;11.23;9.07;;;;;15.30;100849.00;;;;10441570;28;20216;-78
2021/09/25 22:06:55;;;;;;;11.27;9.20;;;;;15.20;100845.00;;;;10458335;28;20210;-77
2021/09/25 22:12:08;;;;;;;10.00;8.53;;;;;15.10;100849.00;;;;10459304;28;20186;-77
2021/09/25 22:17:10;;;;;;;9.70;8.20;;;;;15.00;100845.00;;;;10442012;28;20252;-77
2021/09/25 22:22:12;;;;;;;12.37;8.47;;;;;15.00;100838.00;;;;10461056;28;20182;-78
2021/09/25 22:27:14;;;;;;;11.90;8.70;;;;;15.00;100836.00;;;;10433832;28;20213;-78
2021/09/25 22:32:24;;;;;;;14.90;9.50;;;;;15.00;100834.00;;;;10450297;28;20190;-77
2021/09/25 22:37:35;;;;;;;10.57;8.70;;;;;15.10;100827.00;;;;10417780;28;20195;-78
2021/09/25 22:42:38;;;;;;;11.43;9.03;;;;;15.10;100825.00;;;;10450174;28;20758;-78
2021/09/25 22:47:40;;;;;;;11.00;8.87;;;;;15.10;100827.00;;;;10433230;28;20198;-78
2021/09/25 22:52:42;;;;;;;13.30;9.90;;;;;15.00;100816.00;;;;10449767;28;20217;-78
2021/09/25 22:57:44;;;;;;;11.23;9.73;;;;;15.00;100829.00;;;;10465132;28;20202;-77
2021/09/25 23:02:46;;;;;;;10.77;9.00;;;;;15.00;100832.00;;;;10465597;28;20240;-78
2021/09/25 23:07:48;;;;;;;10.37;9.23;;;;;15.00;100829.00;;;;10400618;28;20553;-78
2021/09/25 23:12:50;;;;;;;13.23;10.27;;;;;15.00;100831.00;;;;10448882;28;20661;-78
2021/09/25 23:17:52;;;;;;;17.97;10.77;;;;;15.10;100837.00;;;;10448803;28;20244;-77
2021/09/25 23:22:54;;;;;;;15.03;10.50;;;;;15.20;100835.00;;;;10416031;28;20190;-77
2021/09/25 23:27:57;;;;;;;13.67;10.40;;;;;15.40;100835.00;;;;10431074;28;20190;-77
2021/09/25 23:32:59;;;;;;;12.70;10.73;;;;;15.50;100851.00;;;;10463984;28;20193;-77
2021/09/25 23:38:02;;;;;;;13.00;9.67;;;;;15.60;100843.00;;;;10480608;28;20195;-77
2021/09/25 23:43:04;;;;;;;14.20;9.77;;;;;15.60;100852.00;;;;10441892;28;20222;-77
2021/09/25 23:48:06;;;;;;;13.43;10.30;;;;;15.70;100851.00;;;;10407186;28;20210;-77
2021/09/25 23:53:08;;;;;;;13.07;9.73;;;;;15.70;100863.00;;;;10449204;28;20199;-78
2021/09/25 23:58:10;;;;;;;12.73;9.57;;;;;15.80;100856.00;;;;10438735;28;20205;-78
